Time;durP1;ratioP1;P1;durP2;ratioP2;P2;SDS_P1;SDS_P2;PMS_P1;PMS_P2;Temp;Humidity;BMP_temperature;BMP_pressure;BME280_temperature;BME280_humidity;BME280_pressure;Samples;Min_cycle;Max_cycle;Signal;HPM_P1;HPM_P2
2022/07/02 00:00:48;;;;;;;8.63;4.43;;;;;;;14.02;79.08;102027.97;4936479;29;20119;-80
2022/07/02 00:03:22;;;;;;;8.07;4.30;;;;;;;14.00;79.50;102039.03;4934760;29;20501;-81
2022/07/02 00:05:55;;;;;;;8.33;4.00;;;;;;;14.01;78.75;102034.44;4936098;29;20055;-80
2022/07/02 00:08:23;;;;;;;7.17;4.00;;;;;;;13.93;79.57;102021.84;4917931;29;20050;-80
2022/07/02 00:10:50;;;;;;;6.27;3.80;;;;;;;13.89;79.73;102030.63;4936363;29;20035;-80
2022/07/02 00:13:17;;;;;;;10.37;4.50;;;;;;;13.85;79.68;102033.75;4935426;29;20069;-81
2022/07/02 00:15:43;;;;;;;8.90;4.33;;;;;;;13.81;79.48;102028.94;4934908;28;20146;-80
2022/07/02 00:18:09;;;;;;;5.77;4.27;;;;;;;13.79;79.84;102028.28;4934916;29;20091;-80
2022/07/02 00:20:37;;;;;;;9.00;4.27;;;;;;;13.79;80.77;102040.03;4935919;29;20035;-82
2022/07/02 00:23:02;;;;;;;10.77;4.43;;;;;;;13.76;80.96;102026.84;4935452;29;20355;-80
2022/07/02 00:25:32;;;;;;;13.27;4.80;;;;;;;13.72;80.58;102031.00;4935309;29;20838;-79
2022/07/02 00:27:59;;;;;;;6.77;4.40;;;;;;;13.65;81.91;102036.44;4935110;29;20031;-82
2022/07/02 00:30:24;;;;;;;8.13;4.67;;;;;;;13.68;82.28;102040.59;4935639;29;20040;-79
2022/07/02 00:32:50;;;;;;;11.50;5.67;;;;;;;13.66;81.46;102034.53;4933555;29;20035;-81
2022/07/02 00:35:16;;;;;;;18.27;8.33;;;;;;;13.70;79.75;102034.97;4935967;29;20043;-80
2022/07/02 00:37:41;;;;;;;15.00;6.40;;;;;;;13.64;81.86;102037.47;4935329;29;20039;-80
2022/07/02 00:40:08;;;;;;;17.20;7.53;;;;;;;13.68;79.88;102036.00;4935144;29;20177;-79
2022/07/02 00:42:36;;;;;;;18.00;8.17;;;;;;;13.68;79.84;102035.16;4934959;29;20050;-80
2022/07/02 00:45:02;;;;;;;15.37;6.37;;;;;;;13.70;79.90;102034.97;4934078;29;20117;-80
2022/07/02 00:47:30;;;;;;;13.40;6.07;;;;;;;13.71;79.01;102031.19;4916761;29;20035;-81
2022/07/02 00:49:55;;;;;;;13.17;6.27;;;;;;;13.65;81.81;102030.97;4935487;29;20480;-80
2022/07/02 00:52:21;;;;;;;14.50;7.07;;;;;;;13.60;82.89;102035.31;4935137;29;20046;-80
2022/07/02 00:54:46;;;;;;;14.40;6.13;;;;;;;13.65;80.57;102033.69;4918615;29;20492;-80
2022/07/02 00:57:12;;;;;;;9.63;4.73;;;;;;;13.64;79.89;102026.56;4934794;29;20043;-81
2022/07/02 00:59:38;;;;;;;9.33;4.43;;;;;;;13.67;79.43;102023.44;4933674;29;20047;-81
2022/07/02 01:02:06;;;;;;;10.07;5.27;;;;;;;13.53;82.46;102029.03;4935400;29;20043;-82
2022/07/02 01:04:33;;;;;;;9.57;4.30;;;;;;;13.64;79.00;102023.84;4932963;29;20046;-81
2022/07/02 01:07:07;;;;;;;10.60;4.60;;;;;;;13.62;79.81;102025.09;4934907;29;20369;-80
2022/07/02 01:12:24;;;;;;;6.27;4.27;;;;;;;13.38;82.27;102008.25;4935421;29;20081;-80
2022/07/02 01:14:50;;;;;;;8.83;4.80;;;;;;;13.48;81.57;102014.13;4934699;29;20040;-83
2022/07/02 01:17:16;;;;;;;7.30;4.30;;;;;;;13.45;82.08;102020.00;4935253;29;20482;-80
2022/07/02 01:19:42;;;;;;;7.37;4.37;;;;;;;13.40;83.69;102014.31;4935552;29;20495;-80
2022/07/02 01:22:16;;;;;;;7.93;4.60;;;;;;;13.26;83.67;102005.22;4934263;29;20036;-79
2022/07/02 01:24:42;;;;;;;;;;;;;;;13.45;81.83;102017.28;4937123;29;20357;-80
2022/07/02 01:27:08;;;;;;;7.27;4.77;;;;;;;13.33;82.10;102014.25;4936239;28;19934;-80
2022/07/02 01:29:34;;;;;;;8.43;4.90;;;;;;;13.28;82.16;102014.00;4938274;29;20042;-80
2022/07/02 01:31:59;;;;;;;9.93;4.90;;;;;;;13.32;82.05;102023.44;4939027;29;20097;-80
2022/07/02 01:34:24;;;;;;;9.47;4.70;;;;;;;13.20;83.65;102025.03;4938956;29;20043;-80
2022/07/02 01:36:50;;;;;;;6.73;4.30;;;;;;;13.18;83.82;102016.25;4938013;29;20074;-81
2022/07/02 01:39:22;;;;;;;6.83;4.70;;;;;;;13.08;84.42;102023.94;4938460;29;20045;-80
2022/07/02 01:41:47;;;;;;;8.73;4.50;;;;;;;13.05;84.92;102014.28;4922422;29;20472;-82
2022/07/02 01:44:12;;;;;;;8.43;5.33;;;;;;;13.14;83.59;102023.16;4937834;29;20047;-83
2022/07/02 01:46:38;;;;;;;10.47;5.40;;;;;;;13.08;83.52;102007.59;4939002;29;20411;-80
2022/07/02 01:49:04;;;;;;;9.30;5.33;;;;;;;13.10;83.54;102005.53;4936796;29;20439;-80
2022/07/02 01:51:29;;;;;;;7.90;5.03;;;;;;;13.23;82.91;102016.50;4923369;29;20039;-81
2022/07/02 01:53:55;;;;;;;7.13;4.70;;;;;;;13.28;82.98;102018.63;4919617;29;20040;-81
2022/07/02 01:56:20;;;;;;;7.73;4.63;;;;;;;13.30;82.31;102011.06;4938866;29;20126;-81
2022/07/02 01:58:46;;;;;;;9.07;5.17;;;;;;;13.34;82.39;102015.94;4938049;29;20396;-81
2022/07/02 02:01:11;;;;;;;9.37;5.00;;;;;;;13.33;82.37;102016.13;4938229;29;20187;-80
2022/07/02 02:03:37;;;;;;;8.33;4.87;;;;;;;13.36;82.66;102014.94;4937749;29;20037;-81
2022/07/02 02:06:03;;;;;;;11.97;5.53;;;;;;;13.33;82.48;102016.97;4937370;29;20113;-80
2022/07/02 02:08:28;;;;;;;11.73;5.60;;;;;;;13.28;82.71;102014.00;4938010;29;20040;-81
2022/07/02 02:10:54;;;;;;;11.47;5.73;;;;;;;13.28;82.91;102015.91;4921526;29;20235;-81
2022/07/02 02:13:19;;;;;;;12.40;5.90;;;;;;;13.24;83.25;102010.00;4937225;29;20343;-80
2022/07/02 02:15:45;;;;;;;16.97;7.80;;;;;;;13.26;82.63;102013.38;4938170;29;20630;-80
2022/07/02 02:18:10;;;;;;;15.43;7.63;;;;;;;13.22;82.76;102016.69;4920649;29;20051;-81
2022/07/02 02:20:35;;;;;;;14.43;6.53;;;;;;;13.23;82.49;102011.06;4937698;29;20035;-81
2022/07/02 02:23:04;;;;;;;11.87;6.00;;;;;;;13.21;82.40;102004.97;4938033;29;20303;-81
2022/07/02 02:25:33;;;;;;;8.77;5.03;;;;;;;13.28;82.30;102019.44;4938293;29;20039;-81
2022/07/02 02:27:59;;;;;;;7.60;4.43;;;;;;;13.28;82.16;102016.72;4936814;29;20444;-80
2022/07/02 02:30:25;;;;;;;10.90;4.40;;;;;;;13.30;81.78;102017.38;4938196;29;20105;-80
2022/07/02 02:32:50;;;;;;;6.90;4.23;;;;;;;13.31;81.45;102016.34;4937236;29;20046;-82
2022/07/02 02:35:15;;;;;;;7.63;4.93;;;;;;;13.15;82.40;101997.59;4937729;29;20035;-80
2022/07/02 02:37:41;;;;;;;10.07;4.73;;;;;;;13.26;82.77;102013.38;4937209;28;20706;-80
2022/07/02 02:40:07;;;;;;;10.57;5.20;;;;;;;13.23;83.17;102015.66;4937200;29;20502;-80
2022/07/02 02:42:32;;;;;;;13.80;5.40;;;;;;;13.24;83.16;102022.78;4937563;29;20162;-80
2022/07/02 02:44:57;;;;;;;8.27;5.10;;;;;;;13.22;83.60;102009.38;4937427;29;20476;-80
2022/07/02 02:47:23;;;;;;;8.83;4.83;;;;;;;13.15;83.78;102011.19;4937435;29;20146;-80
2022/07/02 02:49:49;;;;;;;9.37;5.17;;;;;;;13.16;83.88;102016.47;4936484;29;20118;-80
2022/07/02 02:52:14;;;;;;;10.47;5.20;;;;;;;13.08;84.48;102005.75;4936797;29;20117;-81
2022/07/02 02:54:40;;;;;;;9.73;5.23;;;;;;;13.12;84.59;102006.16;4937137;29;20050;-80
2022/07/02 02:57:05;;;;;;;10.87;5.43;;;;;;;13.17;83.64;102017.28;4937469;29;20042;-80
2022/07/02 02:59:30;;;;;;;11.13;5.33;;;;;;;13.21;82.86;102025.91;4916571;29;20043;-79
2022/07/02 03:01:56;;;;;;;10.87;5.03;;;;;;;13.26;82.88;102026.97;4920488;29;20043;-79
2022/07/02 03:04:21;;;;;;;9.13;4.93;;;;;;;13.24;82.29;102026.31;4936955;29;20043;-80
2022/07/02 03:06:47;;;;;;;9.17;4.60;;;;;;;13.28;81.95;102030.31;4937011;29;20458;-80
2022/07/02 03:09:12;;;;;;;9.27;4.90;;;;;;;13.34;82.01;102029.53;4936233;29;20039;-80
2022/07/02 03:11:37;;;;;;;9.57;4.67;;;;;;;13.41;81.55;102023.31;4937512;29;20046;-80
2022/07/02 03:14:03;;;;;;;10.83;4.80;;;;;;;13.42;81.27;102027.72;4936912;29;20039;-81
2022/07/02 03:16:28;;;;;;;10.07;4.93;;;;;;;13.34;81.34;102018.66;4920387;29;20139;-81
2022/07/02 03:18:53;;;;;;;10.43;4.80;;;;;;;13.44;81.84;102033.81;4935795;29;20033;-80
2022/07/02 03:21:19;;;;;;;12.13;4.93;;;;;;;13.44;81.68;102033.81;4937297;29;20121;-79
2022/07/02 03:23:44;;;;;;;12.63;4.83;;;;;;;13.41;81.39;102021.44;4936138;29;20173;-81
2022/07/02 03:26:09;;;;;;;9.87;4.93;;;;;;;13.39;81.38;102031.69;4936667;29;20043;-80
2022/07/02 03:28:35;;;;;;;10.90;4.83;;;;;;;13.40;80.62;102038.81;4920163;29;20039;-80
2022/07/02 03:31:00;;;;;;;9.03;4.90;;;;;;;13.42;81.24;102058.53;4936478;29;20047;-82
2022/07/02 03:33:25;;;;;;;12.20;4.97;;;;;;;13.38;81.91;102050.94;4936517;29;20416;-79
2022/07/02 03:35:51;;;;;;;9.03;4.63;;;;;;;13.35;82.00;102057.59;4919827;29;21419;-80
2022/07/02 03:38:16;;;;;;;8.40;4.40;;;;;;;13.28;82.08;102052.09;4935419;29;20134;-80
2022/07/02 03:40:42;;;;;;;9.20;4.73;;;;;;;13.29;81.99;102051.06;4937128;29;20198;-80
2022/07/02 03:43:07;;;;;;;9.10;4.70;;;;;;;13.32;81.68;102064.28;4935773;29;20040;-80
2022/07/02 03:45:32;;;;;;;12.20;4.80;;;;;;;13.29;81.78;102050.25;4935970;29;20039;-80
2022/07/02 03:47:58;;;;;;;11.00;4.53;;;;;;;13.32;81.75;102053.38;4936207;29;20050;-79
2022/07/02 03:50:23;;;;;;;8.93;4.50;;;;;;;13.36;81.87;102055.75;4919518;29;20488;-81
2022/07/02 03:52:48;;;;;;;9.97;4.83;;;;;;;13.33;81.93;102049.63;4935741;29;20567;-81
2022/07/02 03:55:14;;;;;;;10.17;4.87;;;;;;;13.29;81.82;102051.06;4936086;29;20428;-80
2022/07/02 03:57:39;;;;;;;9.10;4.43;;;;;;;13.25;81.87;102051.69;4935983;29;20043;-81
2022/07/02 04:00:06;;;;;;;7.07;4.53;;;;;;;13.29;82.17;102052.97;4935245;29;20160;-81
2022/07/02 04:02:32;;;;;;;9.73;4.70;;;;;;;13.27;81.55;102055.88;4917837;29;21329;-81
2022/07/02 04:04:57;;;;;;;8.93;4.47;;;;;;;13.32;81.08;102053.38;4936188;29;20039;-81
2022/07/02 04:07:22;;;;;;;10.00;4.30;;;;;;;13.37;81.53;102065.59;4935856;29;20043;-80
2022/07/02 04:09:48;;;;;;;9.30;4.53;;;;;;;13.37;81.69;102060.13;4935637;29;20074;-81
2022/07/02 04:12:13;;;;;;;9.40;4.50;;;;;;;13.38;81.28;102059.97;4936229;29;20043;-80
2022/07/02 04:14:38;;;;;;;13.43;5.10;;;;;;;13.36;81.64;102061.19;4934729;29;20039;-80
2022/07/02 04:17:05;;;;;;;6.80;4.30;;;;;;;13.38;80.85;102053.66;4936312;29;20118;-81
2022/07/02 04:19:30;;;;;;;10.40;4.37;;;;;;;13.36;80.29;102050.31;4919389;29;20403;-82
2022/07/02 04:21:56;;;;;;;7.93;4.33;;;;;;;13.40;81.17;102057.88;4935252;29;20039;-80
2022/07/02 04:24:21;;;;;;;9.43;4.67;;;;;;;13.39;81.33;102063.50;4903663;29;20154;-81
2022/07/02 04:26:47;;;;;;;10.63;4.87;;;;;;;13.32;81.27;102056.09;4919027;29;20047;-81
2022/07/02 04:29:12;;;;;;;9.27;4.70;;;;;;;13.37;81.66;102062.84;4934828;29;20031;-81
2022/07/02 04:31:38;;;;;;;11.03;4.50;;;;;;;13.38;80.58;102062.69;4936161;29;20110;-81
2022/07/02 04:34:03;;;;;;;8.40;4.80;;;;;;;13.38;81.39;102067.28;4935130;29;20531;-82
2022/07/02 04:36:28;;;;;;;8.47;4.50;;;;;;;13.36;80.67;102058.47;4934955;29;20093;-81
2022/07/02 04:38:54;;;;;;;9.17;5.20;;;;;;;13.39;81.07;102058.91;4915440;29;20046;-82
2022/07/02 04:41:19;;;;;;;8.73;4.90;;;;;;;13.39;80.79;102061.63;4919506;29;20039;-83
2022/07/02 04:43:44;;;;;;;8.97;4.63;;;;;;;13.39;80.81;102066.22;4919672;29;20138;-80
2022/07/02 04:46:10;;;;;;;8.77;4.97;;;;;;;13.44;80.86;102066.47;4919123;29;20058;-80
2022/07/02 04:48:36;;;;;;;12.43;5.20;;;;;;;13.45;80.41;102073.59;4916266;29;20133;-81
2022/07/02 04:51:01;;;;;;;9.23;4.60;;;;;;;13.45;79.96;102062.69;4919191;29;20043;-82
2022/07/02 04:53:27;;;;;;;11.17;5.10;;;;;;;13.50;80.47;102061.06;4919230;29;20114;-81
2022/07/02 04:55:52;;;;;;;11.00;5.07;;;;;;;13.45;80.17;102049.94;4919244;29;20035;-82
2022/07/02 04:58:17;;;;;;;8.27;4.80;;;;;;;13.60;79.59;102066.13;4918848;29;20039;-81
2022/07/02 05:00:42;;;;;;;8.53;4.97;;;;;;;13.65;79.67;102062.81;4934428;29;20050;-81
2022/07/02 05:03:08;;;;;;;10.57;5.37;;;;;;;13.73;80.16;102061.78;4935322;29;20038;-81
2022/07/02 05:05:33;;;;;;;8.10;4.90;;;;;;;13.81;79.12;102065.16;4934758;29;20059;-81
2022/07/02 05:07:58;;;;;;;11.03;5.30;;;;;;;13.89;79.48;102064.16;4934714;29;20054;-81
2022/07/02 05:10:24;;;;;;;10.27;5.57;;;;;;;13.96;78.88;102065.00;4934901;29;20133;-81
2022/07/02 05:12:49;;;;;;;7.77;5.07;;;;;;;13.97;78.52;102061.25;4935009;29;20130;-81
2022/07/02 05:15:15;;;;;;;10.80;5.33;;;;;;;14.12;78.96;102065.72;4935145;29;20590;-80
2022/07/02 05:17:40;;;;;;;12.90;5.57;;;;;;;14.17;79.96;102065.91;4934388;29;20496;-81
2022/07/02 05:20:06;;;;;;;10.80;5.80;;;;;;;14.24;78.28;102068.66;4933979;29;20217;-80
2022/07/02 05:22:31;;;;;;;10.33;5.50;;;;;;;14.29;77.87;102069.72;4935113;29;20039;-81
2022/07/02 05:24:56;;;;;;;12.23;5.57;;;;;;;14.26;77.17;102064.66;4935191;29;20089;-81
2022/07/02 05:27:22;;;;;;;12.13;5.97;;;;;;;14.33;76.45;102073.72;4919068;29;20158;-82
2022/07/02 05:29:47;;;;;;;10.57;5.93;;;;;;;14.35;75.93;102063.44;4935291;29;20126;-82
2022/07/02 05:32:12;;;;;;;13.53;6.10;;;;;;;14.42;76.59;102071.63;4935182;29;20050;-80
2022/07/02 05:34:38;;;;;;;14.90;6.43;;;;;;;14.48;76.45;102068.09;4934689;29;20047;-80
2022/07/02 05:37:03;;;;;;;11.80;5.67;;;;;;;14.52;76.61;102071.22;4935184;29;20043;-80
2022/07/02 05:39:29;;;;;;;11.50;5.43;;;;;;;14.51;76.29;102072.28;4934822;29;20035;-80
2022/07/02 05:41:55;;;;;;;10.67;5.43;;;;;;;14.61;76.15;102089.06;4934672;29;20077;-80
2022/07/02 05:44:21;;;;;;;11.40;5.10;;;;;;;14.66;76.31;102085.72;4934515;29;20071;-80
2022/07/02 05:46:46;;;;;;;10.40;5.60;;;;;;;14.69;75.80;102088.88;4918558;29;20662;-80
2022/07/02 05:49:11;;;;;;;10.70;5.23;;;;;;;14.73;76.15;102080.28;4934896;29;20047;-79
2022/07/02 05:51:37;;;;;;;9.10;4.90;;;;;;;14.76;75.28;102085.34;4935205;29;20098;-80
2022/07/02 05:54:02;;;;;;;8.23;4.80;;;;;;;14.87;75.81;102086.59;4934762;29;20046;-80
2022/07/02 05:56:28;;;;;;;9.50;4.93;;;;;;;14.93;75.69;102089.31;4917020;29;20141;-79
2022/07/02 05:58:53;;;;;;;10.47;4.77;;;;;;;15.05;74.48;102094.97;4934586;29;20043;-81
2022/07/02 06:01:18;;;;;;;9.73;4.70;;;;;;;15.12;73.30;102094.97;4934691;29;20123;-80
2022/07/02 06:03:44;;;;;;;7.30;4.23;;;;;;;15.22;72.75;102098.13;4933894;29;20047;-82
2022/07/02 06:08:53;;;;;;;9.35;4.63;;;;;;;15.47;73.44;102097.44;4934430;29;20062;-81
2022/07/02 06:11:18;;;;;;;10.90;5.00;;;;;;;15.54;71.76;102092.78;4934998;29;20051;-82
2022/07/02 06:13:44;;;;;;;7.47;4.20;;;;;;;15.60;71.30;102086.47;4936086;29;20134;-81
2022/07/02 06:16:09;;;;;;;7.00;4.20;;;;;;;15.68;69.90;102086.22;4937417;29;20043;-81
2022/07/02 06:18:34;;;;;;;6.80;3.70;;;;;;;15.68;71.00;102072.56;4938367;29;20161;-81
2022/07/02 06:21:00;;;;;;;7.07;3.80;;;;;;;15.79;69.39;102084.72;4937771;29;20047;-80
2022/07/02 06:23:25;;;;;;;7.63;3.90;;;;;;;15.92;71.20;102091.22;4937301;29;20039;-80
2022/07/02 06:25:50;;;;;;;6.27;3.80;;;;;;;16.02;68.92;102088.88;4937721;29;20040;-80
2022/07/02 06:28:17;;;;;;;7.77;4.10;;;;;;;16.11;70.19;102095.72;4938328;29;20463;-79
2022/07/02 06:30:42;;;;;;;8.37;3.80;;;;;;;16.21;70.16;102095.28;4936744;29;20043;-80
2022/07/02 06:33:07;;;;;;;7.30;3.20;;;;;;;16.36;68.77;102105.91;4920450;29;20506;-80
2022/07/02 06:35:33;;;;;;;5.57;2.80;;;;;;;16.44;65.94;102110.28;4936711;29;20048;-81
2022/07/02 06:37:58;;;;;;;7.37;2.90;;;;;;;16.47;65.70;102101.63;4936352;29;20050;-80
2022/07/02 06:40:24;;;;;;;6.10;2.70;;;;;;;16.59;67.53;102099.88;4937822;29;20039;-81
2022/07/02 06:42:49;;;;;;;4.97;2.70;;;;;;;16.69;64.10;102108.41;4938203;29;20069;-83
2022/07/02 06:45:15;;;;;;;4.50;2.63;;;;;;;16.80;64.74;102095.91;4919908;29;20049;-80
2022/07/02 06:47:41;;;;;;;4.17;2.10;;;;;;;16.98;63.58;102106.09;4921278;29;20073;-80
2022/07/02 06:50:07;;;;;;;4.70;2.20;;;;;;;17.13;64.21;102104.94;4937609;29;20372;-80
2022/07/02 06:52:33;;;;;;;3.67;2.20;;;;;;;17.27;63.05;102097.41;4919615;29;20483;-80
2022/07/02 06:54:58;;;;;;;2.77;1.33;;;;;;;17.34;58.92;102101.78;4936954;29;20043;-80
2022/07/02 06:57:24;;;;;;;5.43;1.83;;;;;;;17.31;60.32;102087.69;4921551;29;20061;-80
2022/07/02 06:59:50;;;;;;;4.07;2.00;;;;;;;17.57;60.15;102100.28;4936594;29;20073;-80
2022/07/02 07:02:15;;;;;;;2.70;1.60;;;;;;;17.64;59.71;102097.41;4937410;29;20537;-80
2022/07/02 07:04:42;;;;;;;3.80;1.70;;;;;;;17.68;60.34;102090.44;4937207;29;20043;-79
2022/07/02 07:07:09;;;;;;;2.13;1.40;;;;;;;17.85;61.22;102104.34;4917798;29;20051;-80
2022/07/02 07:09:35;;;;;;;6.57;1.60;;;;;;;17.78;60.00;102093.47;4917945;29;20133;-79
2022/07/02 07:12:04;;;;;;;2.47;1.37;;;;;;;17.91;55.82;102100.72;4918581;29;20047;-82
2022/07/02 07:14:30;;;;;;;3.77;1.30;;;;;;;18.07;56.88;102103.91;4917910;29;21288;-79
2022/07/02 07:16:56;;;;;;;3.07;1.10;;;;;;;18.13;55.07;102097.47;4918007;29;20042;-80
2022/07/02 07:19:21;;;;;;;1.87;1.00;;;;;;;18.30;56.41;102106.72;4917932;29;20052;-80
2022/07/02 07:21:46;;;;;;;3.03;1.13;;;;;;;18.21;56.38;102097.19;4917096;29;20035;-80
2022/07/02 07:24:12;;;;;;;2.60;0.95;;;;;;;18.38;52.37;102098.16;4917633;29;20392;-83
2022/07/02 07:26:38;;;;;;;2.20;1.10;;;;;;;18.51;55.12;102104.56;4918120;29;20179;-81
2022/07/02 07:29:05;;;;;;;1.75;0.90;;;;;;;18.54;52.48;102106.81;4916250;29;20040;-81
2022/07/02 07:31:31;;;;;;;1.50;0.82;;;;;;;18.63;53.69;102102.66;4917050;29;20477;-81
2022/07/02 07:33:57;;;;;;;2.70;1.08;;;;;;;18.53;51.86;102091.41;4918789;29;20078;-81
2022/07/02 07:36:24;;;;;;;1.77;1.00;;;;;;;18.71;50.49;102094.09;4915467;29;20058;-80
2022/07/02 07:38:50;;;;;;;2.75;1.20;;;;;;;18.83;53.75;102104.25;4918273;29;20039;-83
2022/07/02 07:41:17;;;;;;;4.28;1.30;;;;;;;18.88;51.17;102098.91;4916853;29;20054;-80
2022/07/02 07:43:43;;;;;;;1.63;0.90;;;;;;;18.92;53.30;102102.00;4917112;29;20127;-80
2022/07/02 07:46:08;;;;;;;2.47;1.10;;;;;;;19.11;54.06;102099.97;4916481;29;20058;-79
2022/07/02 07:48:34;;;;;;;3.15;1.10;;;;;;;19.20;53.52;102107.66;4917123;29;20787;-79
2022/07/02 07:50:59;;;;;;;5.80;1.45;;;;;;;19.32;51.83;102109.53;4916244;29;20043;-79
2022/07/02 07:53:25;;;;;;;2.78;1.30;;;;;;;19.49;55.18;102112.41;4918057;29;20078;-80
2022/07/02 07:55:51;;;;;;;3.10;1.10;;;;;;;19.34;49.68;102080.75;4917113;29;20076;-80
2022/07/02 07:58:17;;;;;;;3.60;1.23;;;;;;;19.57;52.82;102101.88;4931041;29;20031;-81
2022/07/02 08:00:43;;;;;;;5.20;1.10;;;;;;;19.62;52.81;102103.88;4917027;29;20512;-80
2022/07/02 08:03:09;;;;;;;3.15;1.02;;;;;;;19.49;49.15;102102.25;4916215;29;20035;-81
2022/07/02 08:05:35;;;;;;;3.95;1.30;;;;;;;19.65;50.78;102091.56;4923916;29;20113;-80
2022/07/02 08:08:01;;;;;;;6.07;1.90;;;;;;;19.69;49.58;102093.59;4935652;29;20028;-81
2022/07/02 08:10:26;;;;;;;2.88;1.10;;;;;;;19.87;51.01;102100.88;4935770;29;20039;-80
2022/07/02 08:12:52;;;;;;;2.08;0.88;;;;;;;20.05;50.64;102096.28;4935745;29;20047;-81
2022/07/02 08:15:17;;;;;;;4.38;1.10;;;;;;;20.03;51.50;102088.25;4935552;29;20492;-82
2022/07/02 08:17:45;;;;;;;2.78;1.25;;;;;;;20.14;50.72;102089.28;4936017;29;20063;-80
2022/07/02 08:20:11;;;;;;;4.97;1.48;;;;;;;20.35;52.08;102098.75;4935794;29;20146;-82
2022/07/02 08:22:37;;;;;;;5.18;1.70;;;;;;;20.41;49.08;102094.16;4935691;29;20074;-80
2022/07/02 08:25:04;;;;;;;2.88;1.42;;;;;;;20.69;51.78;102085.06;4935177;29;20054;-80
2022/07/02 08:27:29;;;;;;;3.40;1.40;;;;;;;20.94;47.00;102082.97;4935809;29;20217;-82
2022/07/02 08:29:54;;;;;;;5.88;1.80;;;;;;;21.32;50.64;102086.84;4935466;29;20310;-81
2022/07/02 08:32:20;;;;;;;4.63;1.50;;;;;;;21.54;50.81;102081.34;4933499;29;20421;-82
2022/07/02 08:34:45;;;;;;;4.70;1.52;;;;;;;21.71;46.10;102089.59;4935037;29;20142;-82
2022/07/02 08:37:11;;;;;;;3.15;1.13;;;;;;;21.82;47.78;102076.75;4935132;29;20043;-82
2022/07/02 08:39:36;;;;;;;2.95;1.23;;;;;;;22.00;46.35;102081.91;4935302;29;20130;-82
2022/07/02 08:42:03;;;;;;;2.33;1.50;;;;;;;22.29;43.70;102081.69;4936280;29;20433;-82
2022/07/02 08:44:31;;;;;;;2.40;1.30;;;;;;;22.61;45.46;102075.34;4935457;29;20047;-81
2022/07/02 08:46:58;;;;;;;2.90;1.30;;;;;;;22.78;45.51;102069.72;4934974;29;20031;-81
2022/07/02 08:49:24;;;;;;;3.00;1.40;;;;;;;23.03;45.19;102070.97;4935906;29;20047;-83
2022/07/02 08:54:19;;;;;;;3.67;1.30;;;;;;;23.15;43.98;102079.09;4935229;29;20323;-82
2022/07/02 08:56:45;;;;;;;2.85;1.38;;;;;;;23.34;44.25;102083.06;4935803;29;20124;-82
2022/07/02 08:59:10;;;;;;;4.20;1.33;;;;;;;23.38;41.37;102070.38;4935678;29;21431;-82
2022/07/02 09:01:36;;;;;;;1.60;1.08;;;;;;;23.51;40.78;102059.94;4918629;29;20092;-82
2022/07/02 09:04:02;;;;;;;5.85;1.90;;;;;;;23.72;41.68;102066.38;4936208;29;20039;-82
2022/07/02 09:06:29;;;;;;;3.35;1.40;;;;;;;23.77;41.83;102080.22;4935083;29;20059;-83
2022/07/02 09:08:55;;;;;;;3.28;1.30;;;;;;;23.19;41.26;102069.19;4934655;29;20040;-81
2022/07/02 09:11:22;;;;;;;3.30;1.50;;;;;;;23.36;43.54;102069.81;4935322;29;20105;-82
2022/07/02 09:13:48;;;;;;;5.50;1.85;;;;;;;23.23;42.18;102064.78;4916189;29;20101;-81
2022/07/02 09:16:13;;;;;;;2.55;1.52;;;;;;;23.30;44.44;102064.53;4929441;29;20035;-82
2022/07/02 09:18:38;;;;;;;4.63;1.38;;;;;;;23.57;42.35;102062.44;4935611;29;20555;-85
2022/07/02 09:21:04;;;;;;;5.15;1.88;;;;;;;23.74;43.62;102062.25;4935039;29;20044;-84
2022/07/02 09:23:29;;;;;;;3.38;1.67;;;;;;;23.67;40.87;102058.06;4934105;29;20130;-83
2022/07/02 09:25:54;;;;;;;5.03;1.60;;;;;;;23.62;40.72;102056.09;4935796;29;20075;-82
2022/07/02 09:28:20;;;;;;;3.05;1.50;;;;;;;23.69;41.55;102045.63;4916397;29;20616;-83
2022/07/02 09:30:46;;;;;;;3.08;1.40;;;;;;;23.79;42.69;102046.75;4934828;29;20083;-83
2022/07/02 09:33:29;;;;;;;5.70;1.50;;;;;;;23.96;42.23;102050.13;4934792;29;20134;-81
2022/07/02 09:35:59;;;;;;;4.85;1.83;;;;;;;23.86;41.15;102050.09;4934651;29;20040;-82
2022/07/02 09:38:25;;;;;;;4.22;1.60;;;;;;;23.94;41.42;102055.94;4934429;29;20042;-83
2022/07/02 09:40:55;;;;;;;3.53;1.33;;;;;;;23.81;40.77;102047.31;4934442;29;20035;-84
2022/07/02 09:43:28;;;;;;;3.53;1.60;;;;;;;24.02;41.52;102034.38;4935225;29;20058;-81
2022/07/02 09:45:58;;;;;;;3.85;1.48;;;;;;;24.27;40.42;102025.25;4934013;29;20043;-83
2022/07/02 09:48:24;;;;;;;5.45;1.48;;;;;;;24.04;41.26;102019.13;4937104;28;20042;-81
2022/07/02 09:50:49;;;;;;;3.22;1.52;;;;;;;23.85;40.50;102035.41;4920009;29;20320;-86
2022/07/02 09:53:15;;;;;;;3.42;1.70;;;;;;;23.89;40.87;102031.00;4937435;29;20456;-81
2022/07/02 09:55:50;;;;;;;3.60;1.30;;;;;;;23.96;41.06;102013.31;4938149;29;20043;-82
2022/07/02 09:58:24;;;;;;;2.50;1.20;;;;;;;24.31;43.09;102015.28;4937531;29;20036;-81
2022/07/02 10:00:49;;;;;;;3.50;1.17;;;;;;;24.59;42.58;102030.53;4905261;29;20120;-84
2022/07/02 10:03:15;;;;;;;5.15;1.40;;;;;;;24.13;39.88;102019.44;4937953;29;20094;-81
2022/07/02 10:05:45;;;;;;;3.65;1.80;;;;;;;24.28;42.03;102029.69;4937948;29;20051;-81
2022/07/02 10:08:11;;;;;;;3.38;1.50;;;;;;;24.54;42.82;102021.38;4937702;29;20572;-80
2022/07/02 10:10:41;;;;;;;3.42;1.75;;;;;;;24.41;41.46;102017.22;4920956;29;20134;-81
2022/07/02 10:13:11;;;;;;;3.30;1.52;;;;;;;24.39;42.95;102016.69;4937155;29;20043;-83
2022/07/02 10:15:42;;;;;;;4.25;1.50;;;;;;;24.20;40.27;102016.41;4938202;29;20075;-82
2022/07/02 10:18:08;;;;;;;4.03;1.40;;;;;;;23.63;40.70;102010.72;4938053;29;20039;-83
2022/07/02 10:20:34;;;;;;;4.28;1.05;;;;;;;23.99;39.91;102007.22;4937635;29;20110;-81
2022/07/02 10:23:05;;;;;;;3.80;1.30;;;;;;;23.87;40.05;101996.41;4937253;29;20498;-81
2022/07/02 10:25:31;;;;;;;5.35;1.73;;;;;;;23.31;40.44;101989.59;4938676;29;20036;-82
2022/07/02 10:27:57;;;;;;;4.20;1.70;;;;;;;23.42;41.66;101994.06;4936775;29;20473;-80
2022/07/02 10:30:28;;;;;;;3.72;1.48;;;;;;;23.33;41.10;101998.44;4933418;29;20050;-81
2022/07/02 10:33:15;;;;;;;3.10;1.38;;;;;;;23.49;43.06;101993.00;4937472;29;20135;-81
2022/07/02 10:35:42;;;;;;;2.03;1.50;;;;;;;23.60;41.41;101994.69;4937112;29;20027;-81
2022/07/02 10:38:07;;;;;;;3.08;1.80;;;;;;;23.48;39.82;101994.91;4921046;29;20036;-81
2022/07/02 10:40:44;;;;;;;4.10;1.05;;;;;;;23.88;41.22;101995.28;4937712;29;20038;-81
2022/07/02 10:43:14;;;;;;;3.97;1.00;;;;;;;24.08;39.06;101981.53;4936916;29;20047;-81
2022/07/02 10:45:39;;;;;;;3.63;1.45;;;;;;;23.75;38.26;101983.63;4920437;29;20547;-83
2022/07/02 10:48:05;;;;;;;4.30;1.30;;;;;;;23.71;38.60;101992.78;4935384;29;20039;-81
2022/07/02 10:50:34;;;;;;;4.22;1.02;;;;;;;23.99;39.23;101991.47;4936542;29;20041;-82
2022/07/02 10:53:14;;;;;;;3.75;1.27;;;;;;;24.20;39.27;101991.50;4936745;29;21292;-81
2022/07/02 10:55:42;;;;;;;1.20;1.05;;;;;;;23.81;38.54;101986.41;4937745;29;20031;-81
2022/07/02 10:58:29;;;;;;;4.32;1.40;;;;;;;23.80;39.49;101976.44;4922028;28;20059;-82
2022/07/02 11:00:56;;;;;;;2.83;1.10;;;;;;;23.50;40.23;101989.09;4937327;29;20261;-80
2022/07/02 11:03:27;;;;;;;1.85;0.98;;;;;;;23.56;40.24;101983.31;4919242;29;20228;-81
2022/07/02 11:05:57;;;;;;;2.53;0.90;;;;;;;23.65;40.96;101978.09;4919956;29;20047;-81
2022/07/02 11:09:01;;;;;;;4.95;1.23;;;;;;;24.08;39.93;101976.00;4936760;29;20027;-82
2022/07/02 11:11:46;;;;;;;3.30;1.40;;;;;;;23.81;38.47;101965.09;4933240;29;21013;-81
2022/07/02 11:14:15;;;;;;;7.45;1.33;;;;;;;23.57;38.27;101973.91;4922269;29;20388;-81
2022/07/02 11:16:48;;;;;;;3.10;1.25;;;;;;;23.34;39.06;101975.22;4937048;29;20035;-81
2022/07/02 11:19:24;;;;;;;4.78;1.02;;;;;;;23.16;38.19;101971.03;4935012;28;20559;-82
2022/07/02 11:21:51;;;;;;;2.75;0.95;;;;;;;23.07;40.65;101973.41;4936184;29;20229;-82
2022/07/02 11:24:18;;;;;;;2.20;1.00;;;;;;;23.05;40.97;101970.13;4936448;29;20356;-80
2022/07/02 11:26:45;;;;;;;2.50;1.25;;;;;;;23.12;40.09;101953.28;4935748;29;20037;-83
2022/07/02 11:29:11;;;;;;;2.65;1.25;;;;;;;23.33;38.56;101964.44;4936545;29;20703;-83